Terminal Aerodrome Forecast
Issued by NWS

Home | Current Version | Previous Version | Text Only | Print | Product List | Glossary On
Versions: 1 2 3 4 5 6 7 8 9 10 11 12 13 14 15 16 17 18 19
000
FTUS46 KEKA 240500
TAFCEC
TAF
KCEC 240535Z 2406/2506 35005KT P6SM SCT040
     FM241100 36004KT 4SM BR BKN012
     FM241700 34008KT P6SM SCT015
     FM241900 33015G25KT P6SM SCT020=

USA.gov is the U.S. government's official web portal to all federal, state and local government web resources and services.